Aérodrome :
LOGIN :

S'inscrire | Disclaimer

   EN    FR    IT 

 










Légende :    VFR   VFR Marginal   IFR   IFR Intensif   IFR Très Intensif
Visi : 
Plafond : 
>= 8 km
>= 3000ft
5 à 8 km
1000 à 3000 ft
1500m à 5 km
500 à 1000 ft
800 à 1500m
200 à 500 ft
< 800m
< 200 ft
Symboles :   Orages  Brouillard  Fortes neiges  Fortes précipitations  Vent > 20 kt
SIGMETs :   Divers  Orages  Givrage  Turbulence  Onde Orograph.  Cendres Volcan.







- Altitude de l'aérodrome : 1187 ft


LIBV - Gioia del Colle Bari

DERNIER METAR :
  • 202355Z 25003KT 210V280 CAVOK 13/09 Q1007 RMK OVC SCT130 BKN230 VIS MIN 9999 WIND THR32 28003KT WIND THR14 27004KT BLU

METARs EXPIRÉS :
  • 202255Z VRB02KT 9000 NSC 13/10 Q1007 RMK OVC SCT090 SCT130 VIS MIN 9000 WIND THR32 26003KT WIND THR14 VRB01KT BLU
  • 202155Z 22006KT 9000 NSC 13/09 Q1007 RMK OVC SCT090 BKN150 VIS MIN 9000 WIND THR32 21007KT WIND THR14 23008KT BLU

TAF TAF LIBV
Valide du 21 à 00h jusqu'au 21 à 09h UTC


202300Z 2100/2109 27008KT 8000 SCT015 SCT050
TEMPO 2100/2104 5000 BR SCT015 BKN050
Pas de NOTAMs connus pour ce terrain.
1 SIGMET publié pour la FIR Brindisi (LIBB) :
 
Turbulence forte
LIBB SIGMET 20 VALID 202300/210200 LIIB
LIBB BRINDISI FIR SEV TURB FCST WI N4307 E01505 - N4154 E01358 - N4126 E01426 - N4107 E01511 - N3854 E01742 - N3854 E01900 - N4041 E01900 - N4106 E01852 - N4112 E01841 - N4221 E01618 - N4307 E01505 FL240/360 MOV E WKN=



MET'MAP, la Météo Aéronautique d'un coup d'oeil ! - Copyright ORBIFLY Décembre 2007 - Disclaimer

ORBIFLY MET'MAP TEAM :

Programmation & Développement : Alexandra Zaïnal
Conception & Développement : Baudouin d'Aumeries
Co-Programmation & Développement : Marc-Olivier Méhu
Soutien technique & logistique : Manuel Goepfert

Contact : metmap@orbifly.com




SOURCES & CREDITS :

   NOAA